sensor_id;sensor_type;location;lat;lon;timestamp;P1;durP1;ratioP1;P2;durP2;ratioP2
37855;SDS011;23694;43.274;26.924;2022-08-20T00:01:04;12.27;;;8.60;;
37855;SDS011;23694;43.274;26.924;2022-08-20T00:03:33;15.50;;;9.00;;
37855;SDS011;23694;43.274;26.924;2022-08-20T00:06:03;12.53;;;8.43;;
37855;SDS011;23694;43.274;26.924;2022-08-20T00:08:35;12.27;;;8.60;;
37855;SDS011;23694;43.274;26.924;2022-08-20T00:11:03;12.60;;;8.25;;
37855;SDS011;23694;43.274;26.924;2022-08-20T00:13:36;15.90;;;8.85;;
37855;SDS011;23694;43.274;26.924;2022-08-20T00:16:14;12.82;;;8.43;;
37855;SDS011;23694;43.274;26.924;2022-08-20T00:18:42;12.35;;;8.77;;
37855;SDS011;23694;43.274;26.924;2022-08-20T00:21:10;11.50;;;8.20;;
37855;SDS011;23694;43.274;26.924;2022-08-20T00:23:38;10.25;;;8.52;;
37855;SDS011;23694;43.274;26.924;2022-08-20T00:26:05;18.45;;;8.80;;
37855;SDS011;23694;43.274;26.924;2022-08-20T00:28:32;12.00;;;9.00;;
37855;SDS011;23694;43.274;26.924;2022-08-20T00:30:58;11.13;;;8.88;;
37855;SDS011;23694;43.274;26.924;2022-08-20T00:33:24;14.10;;;8.75;;
37855;SDS011;23694;43.274;26.924;2022-08-20T00:35:52;10.82;;;8.02;;
37855;SDS011;23694;43.274;26.924;2022-08-20T00:38:21;10.07;;;8.45;;
37855;SDS011;23694;43.274;26.924;2022-08-20T00:40:54;12.07;;;9.05;;
37855;SDS011;23694;43.274;26.924;2022-08-20T00:48:43;17.40;;;10.77;;
37855;SDS011;23694;43.274;26.924;2022-08-20T00:51:17;14.13;;;9.57;;
37855;SDS011;23694;43.274;26.924;2022-08-20T00:53:55;12.90;;;10.43;;
37855;SDS011;23694;43.274;26.924;2022-08-20T00:56:27;12.10;;;9.30;;
37855;SDS011;23694;43.274;26.924;2022-08-20T00:58:55;15.15;;;9.75;;
37855;SDS011;23694;43.274;26.924;2022-08-20T01:01:21;12.35;;;9.00;;
37855;SDS011;23694;43.274;26.924;2022-08-20T01:03:47;11.10;;;8.65;;
37855;SDS011;23694;43.274;26.924;2022-08-20T01:06:14;14.10;;;8.85;;
37855;SDS011;23694;43.274;26.924;2022-08-20T01:08:41;12.55;;;8.38;;
37855;SDS011;23694;43.274;26.924;2022-08-20T01:11:07;14.73;;;8.75;;
37855;SDS011;23694;43.274;26.924;2022-08-20T01:13:46;11.38;;;8.52;;
37855;SDS011;23694;43.274;26.924;2022-08-20T01:16:16;11.93;;;8.10;;
37855;SDS011;23694;43.274;26.924;2022-08-20T01:18:54;9.73;;;8.07;;
37855;SDS011;23694;43.274;26.924;2022-08-20T01:21:22;11.55;;;8.35;;
37855;SDS011;23694;43.274;26.924;2022-08-20T01:26:35;9.50;;;7.90;;
37855;SDS011;23694;43.274;26.924;2022-08-20T01:29:09;10.13;;;8.07;;
37855;SDS011;23694;43.274;26.924;2022-08-20T01:31:40;12.20;;;8.02;;
37855;SDS011;23694;43.274;26.924;2022-08-20T01:34:08;11.35;;;8.23;;
37855;SDS011;23694;43.274;26.924;2022-08-20T01:39:09;11.00;;;7.45;;
37855;SDS011;23694;43.274;26.924;2022-08-20T01:44:08;11.13;;;8.00;;
37855;SDS011;23694;43.274;26.924;2022-08-20T01:46:38;11.68;;;8.52;;
37855;SDS011;23694;43.274;26.924;2022-08-20T01:49:12;12.23;;;8.60;;
37855;SDS011;23694;43.274;26.924;2022-08-20T01:51:42;11.18;;;8.32;;
37855;SDS011;23694;43.274;26.924;2022-08-20T01:54:09;13.25;;;8.27;;
37855;SDS011;23694;43.274;26.924;2022-08-20T01:56:35;14.68;;;7.90;;
37855;SDS011;23694;43.274;26.924;2022-08-20T01:59:28;13.65;;;8.00;;
37855;SDS011;23694;43.274;26.924;2022-08-20T02:01:55;9.95;;;7.50;;
37855;SDS011;23694;43.274;26.924;2022-08-20T02:04:23;12.90;;;7.72;;
37855;SDS011;23694;43.274;26.924;2022-08-20T02:06:56;14.90;;;8.18;;
37855;SDS011;23694;43.274;26.924;2022-08-20T02:09:24;11.57;;;7.80;;
37855;SDS011;23694;43.274;26.924;2022-08-20T02:11:51;11.73;;;8.27;;
37855;SDS011;23694;43.274;26.924;2022-08-20T02:14:18;14.82;;;7.43;;
37855;SDS011;23694;43.274;26.924;2022-08-20T02:16:44;15.20;;;7.60;;
37855;SDS011;23694;43.274;26.924;2022-08-20T02:19:31;12.65;;;7.70;;
37855;SDS011;23694;43.274;26.924;2022-08-20T02:22:06;11.02;;;7.80;;
37855;SDS011;23694;43.274;26.924;2022-08-20T02:24:38;10.73;;;7.70;;
37855;SDS011;23694;43.274;26.924;2022-08-20T02:27:04;11.80;;;8.27;;
37855;SDS011;23694;43.274;26.924;2022-08-20T02:29:30;12.18;;;7.85;;
37855;SDS011;23694;43.274;26.924;2022-08-20T02:31:57;12.88;;;7.85;;
37855;SDS011;23694;43.274;26.924;2022-08-20T02:34:23;12.13;;;8.27;;
37855;SDS011;23694;43.274;26.924;2022-08-20T02:36:49;12.77;;;6.88;;
37855;SDS011;23694;43.274;26.924;2022-08-20T02:39:15;12.05;;;7.35;;
37855;SDS011;23694;43.274;26.924;2022-08-20T02:41:42;13.18;;;7.78;;
37855;SDS011;23694;43.274;26.924;2022-08-20T02:44:08;9.80;;;7.55;;
37855;SDS011;23694;43.274;26.924;2022-08-20T02:46:35;12.93;;;7.03;;
37855;SDS011;23694;43.274;26.924;2022-08-20T02:49:02;10.15;;;6.97;;
37855;SDS011;23694;43.274;26.924;2022-08-20T02:51:29;14.63;;;7.50;;
37855;SDS011;23694;43.274;26.924;2022-08-20T02:53:55;12.30;;;7.97;;
37855;SDS011;23694;43.274;26.924;2022-08-20T02:56:22;11.20;;;7.68;;
37855;SDS011;23694;43.274;26.924;2022-08-20T02:58:48;12.52;;;8.25;;
37855;SDS011;23694;43.274;26.924;2022-08-20T03:01:16;18.08;;;10.77;;
37855;SDS011;23694;43.274;26.924;2022-08-20T03:03:42;14.95;;;7.75;;
37855;SDS011;23694;43.274;26.924;2022-08-20T03:06:11;12.10;;;7.72;;
37855;SDS011;23694;43.274;26.924;2022-08-20T03:08:38;14.93;;;7.95;;
37855;SDS011;23694;43.274;26.924;2022-08-20T03:11:04;11.45;;;7.35;;
37855;SDS011;23694;43.274;26.924;2022-08-20T03:13:30;13.80;;;7.15;;
37855;SDS011;23694;43.274;26.924;2022-08-20T03:15:58;10.15;;;6.90;;
37855;SDS011;23694;43.274;26.924;2022-08-20T03:18:27;11.57;;;6.53;;
37855;SDS011;23694;43.274;26.924;2022-08-20T03:20:56;10.48;;;6.90;;
37855;SDS011;23694;43.274;26.924;2022-08-20T03:23:22;9.43;;;6.82;;
37855;SDS011;23694;43.274;26.924;2022-08-20T03:25:48;12.50;;;7.22;;
37855;SDS011;23694;43.274;26.924;2022-08-20T03:28:16;10.18;;;6.43;;
37855;SDS011;23694;43.274;26.924;2022-08-20T03:30:43;13.10;;;6.78;;
37855;SDS011;23694;43.274;26.924;2022-08-20T03:33:10;11.88;;;6.95;;
37855;SDS011;23694;43.274;26.924;2022-08-20T03:35:37;11.13;;;7.03;;
37855;SDS011;23694;43.274;26.924;2022-08-20T03:38:07;11.95;;;7.45;;
37855;SDS011;23694;43.274;26.924;2022-08-20T03:40:35;9.70;;;7.55;;
37855;SDS011;23694;43.274;26.924;2022-08-20T03:43:02;10.05;;;7.32;;
37855;SDS011;23694;43.274;26.924;2022-08-20T03:45:30;13.32;;;7.20;;
37855;SDS011;23694;43.274;26.924;2022-08-20T03:47:57;11.93;;;7.55;;
37855;SDS011;23694;43.274;26.924;2022-08-20T03:50:24;11.32;;;7.28;;
37855;SDS011;23694;43.274;26.924;2022-08-20T03:52:53;12.65;;;8.18;;
37855;SDS011;23694;43.274;26.924;2022-08-20T03:55:20;12.43;;;7.90;;
37855;SDS011;23694;43.274;26.924;2022-08-20T03:57:48;13.73;;;7.82;;
37855;SDS011;23694;43.274;26.924;2022-08-20T04:00:22;13.68;;;7.63;;
37855;SDS011;23694;43.274;26.924;2022-08-20T04:02:51;9.63;;;7.00;;
37855;SDS011;23694;43.274;26.924;2022-08-20T04:05:17;12.55;;;8.05;;
37855;SDS011;23694;43.274;26.924;2022-08-20T04:07:43;21.15;;;9.82;;
37855;SDS011;23694;43.274;26.924;2022-08-20T04:10:10;17.77;;;10.75;;
37855;SDS011;23694;43.274;26.924;2022-08-20T04:12:37;20.20;;;11.75;;
37855;SDS011;23694;43.274;26.924;2022-08-20T04:15:12;18.90;;;12.15;;
37855;SDS011;23694;43.274;26.924;2022-08-20T04:17:41;22.85;;;14.73;;
37855;SDS011;23694;43.274;26.924;2022-08-20T04:20:11;34.30;;;27.30;;
37855;SDS011;23694;43.274;26.924;2022-08-20T04:22:38;23.20;;;13.65;;
37855;SDS011;23694;43.274;26.924;2022-08-20T04:25:05;18.65;;;12.82;;
37855;SDS011;23694;43.274;26.924;2022-08-20T04:27:36;17.58;;;12.55;;
37855;SDS011;23694;43.274;26.924;2022-08-20T04:30:07;24.65;;;19.70;;
37855;SDS011;23694;43.274;26.924;2022-08-20T04:32:36;33.40;;;25.48;;
37855;SDS011;23694;43.274;26.924;2022-08-20T04:35:03;33.88;;;29.42;;
37855;SDS011;23694;43.274;26.924;2022-08-20T04:37:32;19.63;;;11.55;;
37855;SDS011;23694;43.274;26.924;2022-08-20T04:40:02;15.30;;;11.52;;
37855;SDS011;23694;43.274;26.924;2022-08-20T04:42:51;15.82;;;11.35;;
37855;SDS011;23694;43.274;26.924;2022-08-20T04:45:17;25.00;;;16.83;;
37855;SDS011;23694;43.274;26.924;2022-08-20T04:47:43;20.77;;;11.70;;
37855;SDS011;23694;43.274;26.924;2022-08-20T04:50:11;16.95;;;10.93;;
37855;SDS011;23694;43.274;26.924;2022-08-20T04:52:37;19.73;;;11.05;;
37855;SDS011;23694;43.274;26.924;2022-08-20T04:55:05;18.77;;;10.32;;
37855;SDS011;23694;43.274;26.924;2022-08-20T04:57:32;15.45;;;10.90;;
37855;SDS011;23694;43.274;26.924;2022-08-20T05:00:07;14.55;;;10.18;;
37855;SDS011;23694;43.274;26.924;2022-08-20T05:02:37;13.68;;;10.05;;
37855;SDS011;23694;43.274;26.924;2022-08-20T05:05:04;19.02;;;8.70;;
37855;SDS011;23694;43.274;26.924;2022-08-20T05:07:40;15.75;;;9.75;;
37855;SDS011;23694;43.274;26.924;2022-08-20T05:10:09;13.55;;;9.43;;
37855;SDS011;23694;43.274;26.924;2022-08-20T05:12:36;14.77;;;10.07;;
37855;SDS011;23694;43.274;26.924;2022-08-20T05:15:02;14.73;;;9.70;;
37855;SDS011;23694;43.274;26.924;2022-08-20T05:17:29;19.88;;;10.18;;
37855;SDS011;23694;43.274;26.924;2022-08-20T05:19:55;13.98;;;9.10;;
37855;SDS011;23694;43.274;26.924;2022-08-20T05:22:23;16.98;;;10.15;;
37855;SDS011;23694;43.274;26.924;2022-08-20T05:24:50;17.10;;;11.18;;
37855;SDS011;23694;43.274;26.924;2022-08-20T05:27:19;12.85;;;11.43;;
37855;SDS011;23694;43.274;26.924;2022-08-20T05:29:45;18.40;;;11.18;;
37855;SDS011;23694;43.274;26.924;2022-08-20T05:32:11;16.73;;;11.38;;
37855;SDS011;23694;43.274;26.924;2022-08-20T05:34:37;19.63;;;11.07;;
37855;SDS011;23694;43.274;26.924;2022-08-20T05:37:03;16.52;;;9.88;;
37855;SDS011;23694;43.274;26.924;2022-08-20T05:39:29;21.90;;;10.38;;
37855;SDS011;23694;43.274;26.924;2022-08-20T05:41:55;16.77;;;10.65;;
37855;SDS011;23694;43.274;26.924;2022-08-20T05:44:22;16.23;;;11.52;;
37855;SDS011;23694;43.274;26.924;2022-08-20T05:46:48;22.35;;;13.77;;
37855;SDS011;23694;43.274;26.924;2022-08-20T05:49:16;19.38;;;12.65;;
37855;SDS011;23694;43.274;26.924;2022-08-20T05:51:44;15.50;;;12.30;;
37855;SDS011;23694;43.274;26.924;2022-08-20T05:54:11;16.95;;;12.13;;
37855;SDS011;23694;43.274;26.924;2022-08-20T05:56:38;16.52;;;12.25;;
37855;SDS011;23694;43.274;26.924;2022-08-20T05:59:05;16.30;;;11.55;;
37855;SDS011;23694;43.274;26.924;2022-08-20T06:01:33;16.88;;;11.18;;
37855;SDS011;23694;43.274;26.924;2022-08-20T06:04:02;16.67;;;11.00;;
37855;SDS011;23694;43.274;26.924;2022-08-20T06:06:47;22.10;;;11.52;;
37855;SDS011;23694;43.274;26.924;2022-08-20T06:09:17;16.95;;;10.93;;
37855;SDS011;23694;43.274;26.924;2022-08-20T06:11:45;24.27;;;13.38;;
37855;SDS011;23694;43.274;26.924;2022-08-20T06:14:11;19.90;;;10.30;;
37855;SDS011;23694;43.274;26.924;2022-08-20T06:16:37;19.23;;;10.63;;
37855;SDS011;23694;43.274;26.924;2022-08-20T06:19:04;14.27;;;9.45;;
37855;SDS011;23694;43.274;26.924;2022-08-20T06:21:30;14.70;;;10.60;;
37855;SDS011;23694;43.274;26.924;2022-08-20T06:23:56;15.77;;;10.20;;
37855;SDS011;23694;43.274;26.924;2022-08-20T06:26:22;14.32;;;9.68;;
37855;SDS011;23694;43.274;26.924;2022-08-20T06:28:49;16.13;;;9.27;;
37855;SDS011;23694;43.274;26.924;2022-08-20T06:31:15;12.90;;;8.25;;
37855;SDS011;23694;43.274;26.924;2022-08-20T06:33:41;10.00;;;7.47;;
37855;SDS011;23694;43.274;26.924;2022-08-20T06:36:07;12.32;;;6.28;;
37855;SDS011;23694;43.274;26.924;2022-08-20T06:38:33;11.25;;;6.38;;
37855;SDS011;23694;43.274;26.924;2022-08-20T06:40:59;10.68;;;6.32;;
37855;SDS011;23694;43.274;26.924;2022-08-20T06:43:25;9.23;;;5.85;;
37855;SDS011;23694;43.274;26.924;2022-08-20T06:45:51;11.90;;;6.25;;
37855;SDS011;23694;43.274;26.924;2022-08-20T06:48:20;21.63;;;16.13;;
37855;SDS011;23694;43.274;26.924;2022-08-20T06:50:47;12.57;;;7.05;;
37855;SDS011;23694;43.274;26.924;2022-08-20T06:53:14;10.80;;;7.20;;
37855;SDS011;23694;43.274;26.924;2022-08-20T06:55:43;12.15;;;6.00;;
37855;SDS011;23694;43.274;26.924;2022-08-20T06:58:12;12.05;;;6.93;;
37855;SDS011;23694;43.274;26.924;2022-08-20T07:00:39;12.57;;;7.10;;
37855;SDS011;23694;43.274;26.924;2022-08-20T07:03:07;10.75;;;6.35;;
37855;SDS011;23694;43.274;26.924;2022-08-20T07:05:35;11.35;;;6.90;;
37855;SDS011;23694;43.274;26.924;2022-08-20T07:08:04;11.95;;;6.85;;
37855;SDS011;23694;43.274;26.924;2022-08-20T07:10:30;11.82;;;6.10;;
37855;SDS011;23694;43.274;26.924;2022-08-20T07:12:56;13.30;;;6.55;;
37855;SDS011;23694;43.274;26.924;2022-08-20T07:15:25;9.40;;;6.07;;
37855;SDS011;23694;43.274;26.924;2022-08-20T07:17:53;9.38;;;6.57;;
37855;SDS011;23694;43.274;26.924;2022-08-20T07:20:21;11.13;;;5.63;;
37855;SDS011;23694;43.274;26.924;2022-08-20T07:22:48;13.85;;;6.65;;
37855;SDS011;23694;43.274;26.924;2022-08-20T07:25:14;11.50;;;6.75;;
37855;SDS011;23694;43.274;26.924;2022-08-20T07:27:43;10.35;;;5.97;;
37855;SDS011;23694;43.274;26.924;2022-08-20T07:30:12;9.07;;;6.40;;
37855;SDS011;23694;43.274;26.924;2022-08-20T07:33:01;9.25;;;5.93;;
37855;SDS011;23694;43.274;26.924;2022-08-20T07:35:27;11.38;;;6.05;;
37855;SDS011;23694;43.274;26.924;2022-08-20T07:37:54;9.43;;;5.90;;
37855;SDS011;23694;43.274;26.924;2022-08-20T07:40:30;8.70;;;5.82;;
37855;SDS011;23694;43.274;26.924;2022-08-20T07:43:01;10.57;;;6.07;;
37855;SDS011;23694;43.274;26.924;2022-08-20T07:45:28;10.65;;;5.97;;
37855;SDS011;23694;43.274;26.924;2022-08-20T07:48:04;14.75;;;6.70;;
37855;SDS011;23694;43.274;26.924;2022-08-20T07:50:36;9.63;;;6.28;;
37855;SDS011;23694;43.274;26.924;2022-08-20T07:53:03;11.00;;;6.18;;
37855;SDS011;23694;43.274;26.924;2022-08-20T07:55:30;14.20;;;6.60;;
37855;SDS011;23694;43.274;26.924;2022-08-20T07:57:57;10.90;;;6.93;;
37855;SDS011;23694;43.274;26.924;2022-08-20T08:00:28;9.70;;;6.50;;
37855;SDS011;23694;43.274;26.924;2022-08-20T08:02:54;19.23;;;6.97;;
37855;SDS011;23694;43.274;26.924;2022-08-20T08:05:21;8.13;;;6.93;;
37855;SDS011;23694;43.274;26.924;2022-08-20T08:07:47;9.95;;;6.55;;
37855;SDS011;23694;43.274;26.924;2022-08-20T08:10:14;13.50;;;6.13;;
37855;SDS011;23694;43.274;26.924;2022-08-20T08:12:44;17.30;;;6.20;;
37855;SDS011;23694;43.274;26.924;2022-08-20T08:15:17;10.32;;;6.18;;
37855;SDS011;23694;43.274;26.924;2022-08-20T08:17:47;9.30;;;5.90;;
37855;SDS011;23694;43.274;26.924;2022-08-20T08:20:15;10.85;;;5.75;;
37855;SDS011;23694;43.274;26.924;2022-08-20T08:22:42;11.25;;;6.47;;
37855;SDS011;23694;43.274;26.924;2022-08-20T08:25:12;9.27;;;6.53;;
37855;SDS011;23694;43.274;26.924;2022-08-20T08:27:39;8.90;;;5.55;;
37855;SDS011;23694;43.274;26.924;2022-08-20T08:30:06;9.98;;;5.78;;
37855;SDS011;23694;43.274;26.924;2022-08-20T08:32:34;8.75;;;5.30;;
37855;SDS011;23694;43.274;26.924;2022-08-20T08:35:24;13.18;;;5.15;;
37855;SDS011;23694;43.274;26.924;2022-08-20T08:37:51;13.52;;;5.57;;
37855;SDS011;23694;43.274;26.924;2022-08-20T08:40:19;10.88;;;5.47;;
37855;SDS011;23694;43.274;26.924;2022-08-20T08:42:47;9.30;;;4.65;;
37855;SDS011;23694;43.274;26.924;2022-08-20T08:45:20;10.18;;;5.13;;
37855;SDS011;23694;43.274;26.924;2022-08-20T08:47:46;13.77;;;4.80;;
37855;SDS011;23694;43.274;26.924;2022-08-20T08:50:23;8.95;;;5.30;;
37855;SDS011;23694;43.274;26.924;2022-08-20T08:52:53;6.95;;;4.68;;
37855;SDS011;23694;43.274;26.924;2022-08-20T08:55:24;10.55;;;5.53;;
37855;SDS011;23694;43.274;26.924;2022-08-20T08:57:50;8.07;;;5.00;;
37855;SDS011;23694;43.274;26.924;2022-08-20T09:00:20;8.48;;;4.35;;
37855;SDS011;23694;43.274;26.924;2022-08-20T09:02:56;22.73;;;5.45;;
37855;SDS011;23694;43.274;26.924;2022-08-20T09:05:29;9.30;;;4.32;;
37855;SDS011;23694;43.274;26.924;2022-08-20T09:08:00;11.27;;;5.55;;
37855;SDS011;23694;43.274;26.924;2022-08-20T09:10:28;11.73;;;5.38;;
37855;SDS011;23694;43.274;26.924;2022-08-20T09:12:54;13.48;;;5.93;;
37855;SDS011;23694;43.274;26.924;2022-08-20T09:15:20;13.07;;;4.95;;
37855;SDS011;23694;43.274;26.924;2022-08-20T09:17:47;9.30;;;4.82;;
37855;SDS011;23694;43.274;26.924;2022-08-20T09:20:13;13.55;;;5.03;;
37855;SDS011;23694;43.274;26.924;2022-08-20T09:22:39;11.55;;;4.53;;
37855;SDS011;23694;43.274;26.924;2022-08-20T09:25:06;10.65;;;5.18;;
37855;SDS011;23694;43.274;26.924;2022-08-20T09:27:32;12.57;;;4.72;;
37855;SDS011;23694;43.274;26.924;2022-08-20T09:29:59;12.20;;;4.63;;
37855;SDS011;23694;43.274;26.924;2022-08-20T09:32:25;7.88;;;4.80;;
37855;SDS011;23694;43.274;26.924;2022-08-20T09:34:52;12.15;;;5.40;;
37855;SDS011;23694;43.274;26.924;2022-08-20T09:37:24;9.20;;;4.63;;
37855;SDS011;23694;43.274;26.924;2022-08-20T09:39:52;9.38;;;4.53;;
37855;SDS011;23694;43.274;26.924;2022-08-20T09:42:19;10.88;;;4.93;;
37855;SDS011;23694;43.274;26.924;2022-08-20T09:44:48;36.38;;;29.10;;
37855;SDS011;23694;43.274;26.924;2022-08-20T09:47:15;11.25;;;5.82;;
37855;SDS011;23694;43.274;26.924;2022-08-20T09:49:42;8.57;;;4.40;;
37855;SDS011;23694;43.274;26.924;2022-08-20T09:52:09;15.82;;;5.85;;
37855;SDS011;23694;43.274;26.924;2022-08-20T09:54:42;7.07;;;4.60;;
37855;SDS011;23694;43.274;26.924;2022-08-20T09:57:08;8.77;;;4.82;;
37855;SDS011;23694;43.274;26.924;2022-08-20T09:59:35;13.48;;;4.60;;
37855;SDS011;23694;43.274;26.924;2022-08-20T10:02:01;13.68;;;4.55;;
37855;SDS011;23694;43.274;26.924;2022-08-20T10:04:28;10.60;;;4.50;;
37855;SDS011;23694;43.274;26.924;2022-08-20T10:06:54;11.82;;;4.90;;
37855;SDS011;23694;43.274;26.924;2022-08-20T10:09:21;10.80;;;5.40;;
37855;SDS011;23694;43.274;26.924;2022-08-20T10:11:47;13.32;;;7.95;;
37855;SDS011;23694;43.274;26.924;2022-08-20T10:14:14;6.40;;;4.47;;
37855;SDS011;23694;43.274;26.924;2022-08-20T10:16:40;10.10;;;4.80;;
37855;SDS011;23694;43.274;26.924;2022-08-20T10:19:06;8.90;;;4.57;;
37855;SDS011;23694;43.274;26.924;2022-08-20T10:21:32;14.70;;;5.10;;
37855;SDS011;23694;43.274;26.924;2022-08-20T10:23:59;14.35;;;4.70;;
37855;SDS011;23694;43.274;26.924;2022-08-20T10:26:25;11.13;;;4.75;;
37855;SDS011;23694;43.274;26.924;2022-08-20T10:28:51;15.93;;;5.10;;
37855;SDS011;23694;43.274;26.924;2022-08-20T10:31:17;9.73;;;4.10;;
37855;SDS011;23694;43.274;26.924;2022-08-20T10:33:44;14.63;;;4.72;;
37855;SDS011;23694;43.274;26.924;2022-08-20T10:36:14;7.50;;;3.97;;
37855;SDS011;23694;43.274;26.924;2022-08-20T10:38:42;11.52;;;4.50;;
37855;SDS011;23694;43.274;26.924;2022-08-20T10:41:09;9.20;;;4.45;;
37855;SDS011;23694;43.274;26.924;2022-08-20T10:43:36;8.05;;;4.22;;
37855;SDS011;23694;43.274;26.924;2022-08-20T10:46:02;19.00;;;15.25;;
37855;SDS011;23694;43.274;26.924;2022-08-20T10:48:29;7.38;;;3.85;;
37855;SDS011;23694;43.274;26.924;2022-08-20T10:50:55;6.95;;;3.80;;
37855;SDS011;23694;43.274;26.924;2022-08-20T10:53:21;9.35;;;3.92;;
37855;SDS011;23694;43.274;26.924;2022-08-20T10:55:47;11.98;;;4.28;;
37855;SDS011;23694;43.274;26.924;2022-08-20T10:58:13;11.65;;;4.35;;
37855;SDS011;23694;43.274;26.924;2022-08-20T11:00:39;9.55;;;4.15;;
37855;SDS011;23694;43.274;26.924;2022-08-20T11:03:06;6.40;;;4.00;;
37855;SDS011;23694;43.274;26.924;2022-08-20T11:05:32;10.38;;;4.22;;
37855;SDS011;23694;43.274;26.924;2022-08-20T11:07:59;6.55;;;4.32;;
37855;SDS011;23694;43.274;26.924;2022-08-20T11:10:28;13.85;;;4.20;;
37855;SDS011;23694;43.274;26.924;2022-08-20T11:12:57;6.85;;;3.58;;
37855;SDS011;23694;43.274;26.924;2022-08-20T11:15:24;7.13;;;3.63;;
37855;SDS011;23694;43.274;26.924;2022-08-20T11:17:50;12.90;;;4.20;;
37855;SDS011;23694;43.274;26.924;2022-08-20T11:20:17;6.93;;;3.97;;
37855;SDS011;23694;43.274;26.924;2022-08-20T11:22:45;11.05;;;5.03;;
37855;SDS011;23694;43.274;26.924;2022-08-20T11:25:11;17.52;;;14.57;;
37855;SDS011;23694;43.274;26.924;2022-08-20T11:27:39;11.00;;;5.57;;
37855;SDS011;23694;43.274;26.924;2022-08-20T11:30:08;8.55;;;4.78;;
37855;SDS011;23694;43.274;26.924;2022-08-20T11:32:36;10.95;;;4.05;;
37855;SDS011;23694;43.274;26.924;2022-08-20T11:35:02;7.47;;;3.75;;
37855;SDS011;23694;43.274;26.924;2022-08-20T11:37:29;13.43;;;3.80;;
37855;SDS011;23694;43.274;26.924;2022-08-20T11:39:55;8.38;;;3.88;;
37855;SDS011;23694;43.274;26.924;2022-08-20T11:42:21;9.50;;;3.92;;
37855;SDS011;23694;43.274;26.924;2022-08-20T11:44:47;9.00;;;3.75;;
37855;SDS011;23694;43.274;26.924;2022-08-20T11:47:23;6.43;;;3.58;;
37855;SDS011;23694;43.274;26.924;2022-08-20T11:49:59;6.78;;;3.42;;
37855;SDS011;23694;43.274;26.924;2022-08-20T11:52:32;8.43;;;3.83;;
37855;SDS011;23694;43.274;26.924;2022-08-20T11:54:58;9.27;;;3.67;;
37855;SDS011;23694;43.274;26.924;2022-08-20T11:57:28;5.95;;;3.40;;
37855;SDS011;23694;43.274;26.924;2022-08-20T11:59:56;6.13;;;3.50;;
37855;SDS011;23694;43.274;26.924;2022-08-20T12:02:24;8.80;;;3.60;;
37855;SDS011;23694;43.274;26.924;2022-08-20T12:04:52;9.25;;;3.55;;
37855;SDS011;23694;43.274;26.924;2022-08-20T12:07:19;7.50;;;3.17;;
37855;SDS011;23694;43.274;26.924;2022-08-20T12:09:48;9.13;;;3.40;;
37855;SDS011;23694;43.274;26.924;2022-08-20T12:12:14;10.77;;;3.88;;
37855;SDS011;23694;43.274;26.924;2022-08-20T12:14:40;5.18;;;3.47;;
37855;SDS011;23694;43.274;26.924;2022-08-20T12:17:08;6.53;;;3.30;;
37855;SDS011;23694;43.274;26.924;2022-08-20T12:19:39;9.07;;;3.28;;
37855;SDS011;23694;43.274;26.924;2022-08-20T12:22:07;9.80;;;3.58;;
37855;SDS011;23694;43.274;26.924;2022-08-20T12:24:34;6.60;;;3.83;;
37855;SDS011;23694;43.274;26.924;2022-08-20T12:27:11;7.40;;;3.35;;
37855;SDS011;23694;43.274;26.924;2022-08-20T12:29:41;8.10;;;3.40;;
37855;SDS011;23694;43.274;26.924;2022-08-20T12:32:08;6.72;;;3.55;;
37855;SDS011;23694;43.274;26.924;2022-08-20T12:34:35;5.80;;;4.00;;
37855;SDS011;23694;43.274;26.924;2022-08-20T12:37:03;7.82;;;4.18;;
37855;SDS011;23694;43.274;26.924;2022-08-20T12:39:33;8.17;;;3.93;;
37855;SDS011;23694;43.274;26.924;2022-08-20T12:42:00;7.38;;;3.50;;
37855;SDS011;23694;43.274;26.924;2022-08-20T12:44:29;6.85;;;3.30;;
37855;SDS011;23694;43.274;26.924;2022-08-20T12:47:12;6.20;;;3.67;;
37855;SDS011;23694;43.274;26.924;2022-08-20T12:49:42;6.22;;;3.63;;
37855;SDS011;23694;43.274;26.924;2022-08-20T12:52:10;6.63;;;3.38;;
37855;SDS011;23694;43.274;26.924;2022-08-20T12:54:38;5.22;;;3.53;;
37855;SDS011;23694;43.274;26.924;2022-08-20T12:57:04;5.05;;;3.38;;
37855;SDS011;23694;43.274;26.924;2022-08-20T12:59:31;8.35;;;3.10;;
37855;SDS011;23694;43.274;26.924;2022-08-20T13:01:57;5.07;;;3.50;;
37855;SDS011;23694;43.274;26.924;2022-08-20T13:04:24;6.53;;;3.70;;
37855;SDS011;23694;43.274;26.924;2022-08-20T13:06:50;6.28;;;3.22;;
37855;SDS011;23694;43.274;26.924;2022-08-20T13:09:16;5.93;;;3.47;;
37855;SDS011;23694;43.274;26.924;2022-08-20T13:11:42;9.52;;;3.55;;
37855;SDS011;23694;43.274;26.924;2022-08-20T13:14:09;7.57;;;3.33;;
37855;SDS011;23694;43.274;26.924;2022-08-20T13:16:35;6.88;;;3.70;;
37855;SDS011;23694;43.274;26.924;2022-08-20T13:19:01;7.20;;;3.30;;
37855;SDS011;23694;43.274;26.924;2022-08-20T13:21:27;8.70;;;3.95;;
37855;SDS011;23694;43.274;26.924;2022-08-20T13:23:53;7.10;;;3.65;;
37855;SDS011;23694;43.274;26.924;2022-08-20T13:26:19;9.32;;;4.10;;
37855;SDS011;23694;43.274;26.924;2022-08-20T13:28:45;6.82;;;3.80;;
37855;SDS011;23694;43.274;26.924;2022-08-20T13:31:11;4.97;;;3.15;;
37855;SDS011;23694;43.274;26.924;2022-08-20T13:33:38;7.20;;;3.10;;
37855;SDS011;23694;43.274;26.924;2022-08-20T13:36:04;7.10;;;3.45;;
37855;SDS011;23694;43.274;26.924;2022-08-20T13:38:30;8.30;;;3.65;;
37855;SDS011;23694;43.274;26.924;2022-08-20T13:40:56;7.80;;;3.50;;
37855;SDS011;23694;43.274;26.924;2022-08-20T13:43:22;6.50;;;3.50;;
37855;SDS011;23694;43.274;26.924;2022-08-20T13:45:48;8.15;;;3.30;;
37855;SDS011;23694;43.274;26.924;2022-08-20T13:48:15;7.53;;;3.70;;
37855;SDS011;23694;43.274;26.924;2022-08-20T13:50:41;7.30;;;3.88;;
37855;SDS011;23694;43.274;26.924;2022-08-20T13:53:08;6.18;;;3.70;;
37855;SDS011;23694;43.274;26.924;2022-08-20T13:55:34;14.13;;;9.30;;
37855;SDS011;23694;43.274;26.924;2022-08-20T13:58:03;7.68;;;3.58;;
37855;SDS011;23694;43.274;26.924;2022-08-20T14:00:31;7.68;;;3.40;;
37855;SDS011;23694;43.274;26.924;2022-08-20T14:02:59;5.32;;;3.65;;
37855;SDS011;23694;43.274;26.924;2022-08-20T14:05:26;7.55;;;4.25;;
37855;SDS011;23694;43.274;26.924;2022-08-20T14:07:53;7.63;;;4.00;;
37855;SDS011;23694;43.274;26.924;2022-08-20T14:10:21;5.72;;;3.35;;
37855;SDS011;23694;43.274;26.924;2022-08-20T14:12:51;9.20;;;3.47;;
37855;SDS011;23694;43.274;26.924;2022-08-20T14:15:17;9.07;;;4.43;;
37855;SDS011;23694;43.274;26.924;2022-08-20T14:17:51;8.57;;;4.25;;
37855;SDS011;23694;43.274;26.924;2022-08-20T14:20:19;8.82;;;4.82;;
37855;SDS011;23694;43.274;26.924;2022-08-20T14:22:47;10.70;;;4.65;;
37855;SDS011;23694;43.274;26.924;2022-08-20T14:25:14;8.55;;;3.67;;
37855;SDS011;23694;43.274;26.924;2022-08-20T14:27:41;6.00;;;3.38;;
37855;SDS011;23694;43.274;26.924;2022-08-20T14:30:10;8.68;;;3.63;;
37855;SDS011;23694;43.274;26.924;2022-08-20T14:32:41;10.18;;;3.90;;
37855;SDS011;23694;43.274;26.924;2022-08-20T14:35:08;7.10;;;3.30;;
37855;SDS011;23694;43.274;26.924;2022-08-20T14:37:39;7.72;;;3.58;;
37855;SDS011;23694;43.274;26.924;2022-08-20T14:40:08;6.40;;;3.53;;
37855;SDS011;23694;43.274;26.924;2022-08-20T14:42:37;8.70;;;3.75;;